createdAt,value
2022-12-15T00:01:26.528Z,35.83
2022-12-15T00:07:06.587Z,35.67
2022-12-15T00:12:46.589Z,35.67
2022-12-15T00:18:26.696Z,36.02
2022-12-15T00:24:06.674Z,35.68
2022-12-15T00:29:46.592Z,35.87
2022-12-15T00:35:27.143Z,35.92
2022-12-15T00:40:51.376Z,35.83
2022-12-15T00:46:32.434Z,35.70
2022-12-15T00:52:12.436Z,36.16
2022-12-15T00:57:52.756Z,35.74
2022-12-15T01:03:39.115Z,36.05
2022-12-15T01:09:20.215Z,35.86
2022-12-15T01:15:00.718Z,35.77
2022-12-15T01:20:22.455Z,35.97
2022-12-15T01:25:44.120Z,36.13
2022-12-15T01:31:12.313Z,35.95
2022-12-15T01:36:34.072Z,35.87
2022-12-15T01:41:55.856Z,35.89
2022-12-15T01:47:18.942Z,35.72
2022-12-15T01:52:40.782Z,35.66
2022-12-15T01:58:08.470Z,36.00
2022-12-15T02:03:32.043Z,35.86
2022-12-15T02:08:57.281Z,36.12
2022-12-15T02:14:44.741Z,36.06
2022-12-15T02:20:30.902Z,35.80
2022-12-15T02:26:29.973Z,35.87
2022-12-15T02:31:59.409Z,35.99
2022-12-15T02:37:27.500Z,35.85
2022-12-15T02:42:54.286Z,36.01
2022-12-15T02:48:18.891Z,35.70
2022-12-15T02:53:58.657Z,35.78
2022-12-15T02:59:32.505Z,35.54
2022-12-15T03:04:55.294Z,35.68
2022-12-15T03:10:18.016Z,35.84
2022-12-15T03:15:40.001Z,35.41
2022-12-15T03:21:01.785Z,35.45
2022-12-15T03:26:23.528Z,35.71
2022-12-15T03:31:45.327Z,35.44
2022-12-15T03:37:07.023Z,35.59
2022-12-15T03:42:47.015Z,35.70
2022-12-15T03:48:08.728Z,35.35
2022-12-15T03:53:30.768Z,35.60
2022-12-15T03:58:52.754Z,35.52
2022-12-15T04:04:15.387Z,35.48
2022-12-15T04:09:37.583Z,35.28
2022-12-15T04:14:59.301Z,35.52
2022-12-15T04:20:22.001Z,35.12
2022-12-15T04:26:02.463Z,35.06
2022-12-15T04:31:46.575Z,34.92
2022-12-15T04:37:31.112Z,35.05
2022-12-15T04:43:11.475Z,34.95
2022-12-15T04:48:51.602Z,35.03
2022-12-15T04:54:32.182Z,35.02
2022-12-15T05:00:12.176Z,34.93
2022-12-15T05:05:52.263Z,35.34
2022-12-15T05:11:32.405Z,35.04
2022-12-15T05:17:12.715Z,35.19
2022-12-15T05:22:53.296Z,35.34
2022-12-15T05:28:34.240Z,34.98
2022-12-15T05:34:01.066Z,34.86
2022-12-15T05:39:27.209Z,34.84
2022-12-15T05:44:49.320Z,35.08
2022-12-15T05:50:11.564Z,35.09
2022-12-15T05:55:33.229Z,35.04
2022-12-15T06:00:54.955Z,34.73
2022-12-15T06:06:16.703Z,35.08
2022-12-15T06:11:38.440Z,34.74
2022-12-15T06:17:00.267Z,34.81
2022-12-15T06:22:22.033Z,34.52
2022-12-15T06:27:43.663Z,34.63
2022-12-15T06:33:05.381Z,34.58
2022-12-15T06:38:29.405Z,34.64
2022-12-15T06:43:52.648Z,34.39
2022-12-15T06:49:14.804Z,34.61
2022-12-15T06:54:36.469Z,34.02
2022-12-15T06:59:58.108Z,33.70
2022-12-15T07:05:21.674Z,32.95
2022-12-15T07:10:44.638Z,32.45
2022-12-15T07:16:07.779Z,31.70
2022-12-15T07:21:29.577Z,31.23
2022-12-15T07:26:51.299Z,31.21
2022-12-15T07:32:13.057Z,30.96
2022-12-15T07:37:35.311Z,30.76
2022-12-15T07:42:57.520Z,30.87
2022-12-15T07:48:19.824Z,30.93
2022-12-15T07:53:41.679Z,31.46
2022-12-15T07:59:03.909Z,31.69
2022-12-15T08:04:25.578Z,31.82
2022-12-15T08:09:48.555Z,31.04
2022-12-15T08:15:11.903Z,29.80
2022-12-15T08:20:34.042Z,30.14
2022-12-15T08:26:01.587Z,30.04
2022-12-15T08:31:24.244Z,29.85
2022-12-15T08:36:45.955Z,29.69
2022-12-15T08:42:07.629Z,29.38
2022-12-15T08:47:29.371Z,28.71
2022-12-15T08:53:21.386Z,28.36
2022-12-15T08:58:33.576Z,28.10
2022-12-15T09:03:56.661Z,27.76
2022-12-15T09:09:18.712Z,27.72
2022-12-15T09:14:40.434Z,27.67
2022-12-15T09:20:02.216Z,27.94
2022-12-15T09:25:23.906Z,23.44
2022-12-15T09:30:45.646Z,21.43
2022-12-15T09:36:08.917Z,21.27
2022-12-15T09:41:33.811Z,21.49
2022-12-15T09:47:21.895Z,21.46
2022-12-15T09:52:50.375Z,22.63
2022-12-15T09:58:33.577Z,22.99
2022-12-15T10:04:20.282Z,22.78
2022-12-15T10:09:42.167Z,23.80
2022-12-15T10:15:18.918Z,23.61
2022-12-15T10:20:40.869Z,24.08
2022-12-15T10:26:16.261Z,24.07
2022-12-15T10:31:43.671Z,24.52
2022-12-15T10:37:06.129Z,24.66
2022-12-15T10:42:27.972Z,24.68
2022-12-15T10:48:04.127Z,24.56
2022-12-15T10:53:45.408Z,24.70
2022-12-15T10:59:23.587Z,25.17
2022-12-15T11:04:59.908Z,25.77
2022-12-15T11:10:27.928Z,26.28
2022-12-15T11:15:51.863Z,27.24
2022-12-15T11:21:27.636Z,28.08
2022-12-15T11:26:53.297Z,28.60
2022-12-15T11:32:23.111Z,30.05
2022-12-15T11:37:48.509Z,31.21
2022-12-15T11:43:45.469Z,31.99
2022-12-15T11:49:45.750Z,33.59
2022-12-15T11:55:18.152Z,32.87
2022-12-15T12:00:48.988Z,31.34
2022-12-15T12:06:16.640Z,30.83
2022-12-15T12:12:12.177Z,31.27
2022-12-15T12:17:39.240Z,31.05
2022-12-15T12:23:05.998Z,30.37
2022-12-15T12:28:46.828Z,30.56
2022-12-15T12:34:17.958Z,30.34
2022-12-15T12:39:40.333Z,30.62
2022-12-15T12:45:02.905Z,30.68
2022-12-15T12:50:27.506Z,30.41
2022-12-15T12:55:49.871Z,30.65
2022-12-15T13:01:13.276Z,30.99
2022-12-15T13:06:35.101Z,31.18
2022-12-15T13:12:01.090Z,31.50
2022-12-15T13:17:39.444Z,31.39
2022-12-15T13:23:19.785Z,31.09
2022-12-15T13:28:45.541Z,31.66
2022-12-15T13:34:15.112Z,31.88
2022-12-15T13:39:53.147Z,31.87
2022-12-15T13:45:29.265Z,32.32
2022-12-15T13:51:09.601Z,32.82
2022-12-15T13:56:51.621Z,32.59
2022-12-15T14:02:30.535Z,32.78
2022-12-15T14:07:56.352Z,32.42
2022-12-15T14:13:34.834Z,33.14
2022-12-15T14:19:10.291Z,33.34
2022-12-15T14:24:41.335Z,31.58
2022-12-15T14:30:15.075Z,31.22
2022-12-15T14:35:51.506Z,31.43
2022-12-15T14:41:22.087Z,30.96
2022-12-15T14:46:49.920Z,30.74
2022-12-15T14:52:32.939Z,30.68
2022-12-15T14:57:54.681Z,30.76
2022-12-15T15:03:19.956Z,30.91
2022-12-15T15:08:46.452Z,30.46
2022-12-15T15:14:20.808Z,30.61
2022-12-15T15:19:56.714Z,29.68
2022-12-15T15:25:39.295Z,29.51
2022-12-15T15:31:10.948Z,30.01
2022-12-15T15:36:36.370Z,29.78
2022-12-15T15:42:05.372Z,29.67
2022-12-15T15:47:27.603Z,30.07
2022-12-15T15:52:49.326Z,29.88
2022-12-15T15:58:12.507Z,29.58
2022-12-15T16:03:35.529Z,29.49
2022-12-15T16:08:57.369Z,29.51
2022-12-15T16:14:19.118Z,29.41
2022-12-15T16:19:40.799Z,29.08
2022-12-15T16:25:03.060Z,29.41
2022-12-15T16:30:26.492Z,29.45
2022-12-15T16:35:49.696Z,29.32
2022-12-15T16:41:16.171Z,29.31
2022-12-15T16:46:37.973Z,29.49
2022-12-15T16:51:59.730Z,30.19
2022-12-15T16:57:21.579Z,29.79
2022-12-15T17:02:43.560Z,29.69
2022-12-15T17:08:07.006Z,30.08
2022-12-15T17:13:43.572Z,30.13
2022-12-15T17:19:07.165Z,30.08
2022-12-15T17:24:28.894Z,30.11
2022-12-15T17:29:50.657Z,30.06
2022-12-15T17:35:13.010Z,30.24
2022-12-15T17:40:34.701Z,30.62
2022-12-15T17:45:56.438Z,30.45
2022-12-15T17:51:20.312Z,29.63
2022-12-15T17:56:43.868Z,28.85
2022-12-15T18:02:06.137Z,28.12
2022-12-15T18:07:28.033Z,28.05
2022-12-15T18:12:49.912Z,27.55
2022-12-15T18:18:12.211Z,27.61
2022-12-15T18:23:34.845Z,27.38
2022-12-15T18:28:56.882Z,27.03
2022-12-15T18:34:21.531Z,27.54
2022-12-15T18:39:43.522Z,27.17
2022-12-15T18:45:15.319Z,27.06
2022-12-15T18:50:37.021Z,27.09
2022-12-15T18:56:04.321Z,27.19
2022-12-15T19:01:26.201Z,27.21
2022-12-15T19:06:48.164Z,26.80
2022-12-15T19:12:18.458Z,27.29
2022-12-15T19:17:58.577Z,27.44
2022-12-15T19:23:21.247Z,26.74
2022-12-15T19:28:43.013Z,26.68
2022-12-15T19:34:04.721Z,26.78
2022-12-15T19:39:26.789Z,26.50
2022-12-15T19:44:48.616Z,26.16
2022-12-15T19:50:25.185Z,26.07
2022-12-15T19:55:47.293Z,25.81
2022-12-15T20:01:12.770Z,25.85
2022-12-15T20:06:34.464Z,25.84
2022-12-15T20:11:56.120Z,25.87
2022-12-15T20:17:18.110Z,25.75
2022-12-15T20:22:40.098Z,25.43
2022-12-15T20:28:02.101Z,24.99
2022-12-15T20:33:24.776Z,24.95
2022-12-15T20:38:47.906Z,25.39
2022-12-15T20:44:13.130Z,25.52
2022-12-15T20:49:35.172Z,25.53
2022-12-15T20:54:56.815Z,26.42
2022-12-15T21:00:18.741Z,27.07
2022-12-15T21:05:40.418Z,26.96
2022-12-15T21:11:24.606Z,27.78
2022-12-15T21:16:46.561Z,28.18
2022-12-15T21:22:24.648Z,28.34
2022-12-15T21:27:46.522Z,28.85
2022-12-15T21:33:08.635Z,28.97
2022-12-15T21:38:40.319Z,29.02
2022-12-15T21:44:02.007Z,29.69
2022-12-15T21:49:24.509Z,29.78
2022-12-15T21:54:46.238Z,30.06
2022-12-15T22:00:12.557Z,29.95
2022-12-15T22:05:34.343Z,30.38
2022-12-15T22:10:56.182Z,30.22
2022-12-15T22:16:18.157Z,30.58
2022-12-15T22:21:41.818Z,30.16
2022-12-15T22:27:03.855Z,30.78
2022-12-15T22:32:25.695Z,30.60
2022-12-15T22:37:49.710Z,30.97
2022-12-15T22:43:30.661Z,31.12
2022-12-15T22:48:54.709Z,30.78
2022-12-15T22:54:21.888Z,31.16
2022-12-15T22:59:50.363Z,31.14
2022-12-15T23:05:17.250Z,31.12
2022-12-15T23:10:57.851Z,31.28
2022-12-15T23:16:20.030Z,31.35
2022-12-15T23:21:41.796Z,31.57
2022-12-15T23:27:03.594Z,31.42
2022-12-15T23:32:25.532Z,31.29
2022-12-15T23:37:47.211Z,31.49
2022-12-15T23:43:08.912Z,31.65
2022-12-15T23:48:33.926Z,31.63
2022-12-15T23:53:55.668Z,31.38
2022-12-15T23:59:17.653Z,31.41
